sensor_id;sensor_type;location;lat;lon;timestamp;P1;durP1;ratioP1;P2;durP2;ratioP2
4424;SDS011;2225;53.568;13.266;2023-04-25T00:02:13;7.67;;;3.03;;
4424;SDS011;2225;53.568;13.266;2023-04-25T00:04:41;7.50;;;2.73;;
4424;SDS011;2225;53.568;13.266;2023-04-25T00:07:09;10.70;;;3.20;;
4424;SDS011;2225;53.568;13.266;2023-04-25T00:09:36;6.70;;;3.10;;
4424;SDS011;2225;53.568;13.266;2023-04-25T00:12:03;12.47;;;3.07;;
4424;SDS011;2225;53.568;13.266;2023-04-25T00:14:30;7.10;;;3.13;;
4424;SDS011;2225;53.568;13.266;2023-04-25T00:17:00;8.30;;;3.00;;
4424;SDS011;2225;53.568;13.266;2023-04-25T00:19:27;10.80;;;3.03;;
4424;SDS011;2225;53.568;13.266;2023-04-25T00:21:54;13.30;;;3.70;;
4424;SDS011;2225;53.568;13.266;2023-04-25T00:24:21;11.03;;;3.43;;
4424;SDS011;2225;53.568;13.266;2023-04-25T00:26:48;7.90;;;3.10;;
4424;SDS011;2225;53.568;13.266;2023-04-25T00:29:15;6.40;;;3.00;;
4424;SDS011;2225;53.568;13.266;2023-04-25T00:31:42;7.37;;;2.90;;
4424;SDS011;2225;53.568;13.266;2023-04-25T00:34:09;8.20;;;3.03;;
4424;SDS011;2225;53.568;13.266;2023-04-25T00:36:36;8.73;;;3.27;;
4424;SDS011;2225;53.568;13.266;2023-04-25T00:39:04;9.23;;;2.90;;
4424;SDS011;2225;53.568;13.266;2023-04-25T00:41:31;9.47;;;3.20;;
4424;SDS011;2225;53.568;13.266;2023-04-25T00:43:59;10.73;;;3.33;;
4424;SDS011;2225;53.568;13.266;2023-04-25T00:46:28;9.70;;;3.03;;
4424;SDS011;2225;53.568;13.266;2023-04-25T00:48:56;9.00;;;3.33;;
4424;SDS011;2225;53.568;13.266;2023-04-25T00:51:23;6.07;;;2.70;;
4424;SDS011;2225;53.568;13.266;2023-04-25T00:53:53;11.63;;;3.10;;
4424;SDS011;2225;53.568;13.266;2023-04-25T00:56:20;12.03;;;3.20;;
4424;SDS011;2225;53.568;13.266;2023-04-25T00:58:47;8.40;;;3.97;;
4424;SDS011;2225;53.568;13.266;2023-04-25T01:01:15;10.10;;;2.77;;
4424;SDS011;2225;53.568;13.266;2023-04-25T01:03:43;8.93;;;3.33;;
4424;SDS011;2225;53.568;13.266;2023-04-25T01:06:13;15.00;;;3.53;;
4424;SDS011;2225;53.568;13.266;2023-04-25T01:08:42;10.47;;;3.10;;
4424;SDS011;2225;53.568;13.266;2023-04-25T01:11:09;8.50;;;2.90;;
4424;SDS011;2225;53.568;13.266;2023-04-25T01:13:36;10.63;;;2.90;;
4424;SDS011;2225;53.568;13.266;2023-04-25T01:16:03;8.00;;;3.20;;
4424;SDS011;2225;53.568;13.266;2023-04-25T01:18:31;10.50;;;3.80;;
4424;SDS011;2225;53.568;13.266;2023-04-25T01:21:06;7.70;;;3.10;;
4424;SDS011;2225;53.568;13.266;2023-04-25T01:23:38;8.37;;;2.73;;
4424;SDS011;2225;53.568;13.266;2023-04-25T01:26:07;8.00;;;3.10;;
4424;SDS011;2225;53.568;13.266;2023-04-25T01:28:37;6.40;;;3.00;;
4424;SDS011;2225;53.568;13.266;2023-04-25T01:31:10;8.40;;;3.00;;
4424;SDS011;2225;53.568;13.266;2023-04-25T01:33:38;8.57;;;3.17;;
4424;SDS011;2225;53.568;13.266;2023-04-25T01:36:05;7.70;;;3.10;;
4424;SDS011;2225;53.568;13.266;2023-04-25T01:38:34;11.23;;;3.37;;
4424;SDS011;2225;53.568;13.266;2023-04-25T01:41:01;8.73;;;3.47;;
4424;SDS011;2225;53.568;13.266;2023-04-25T01:43:28;16.33;;;3.23;;
4424;SDS011;2225;53.568;13.266;2023-04-25T01:45:55;10.77;;;3.70;;
4424;SDS011;2225;53.568;13.266;2023-04-25T01:48:23;11.30;;;3.30;;
4424;SDS011;2225;53.568;13.266;2023-04-25T01:50:50;10.50;;;3.17;;
4424;SDS011;2225;53.568;13.266;2023-04-25T01:53:17;10.23;;;3.33;;
4424;SDS011;2225;53.568;13.266;2023-04-25T01:55:45;10.07;;;3.27;;
4424;SDS011;2225;53.568;13.266;2023-04-25T01:58:14;6.90;;;3.00;;
4424;SDS011;2225;53.568;13.266;2023-04-25T02:01:00;9.13;;;3.37;;
4424;SDS011;2225;53.568;13.266;2023-04-25T02:03:34;8.13;;;3.50;;
4424;SDS011;2225;53.568;13.266;2023-04-25T02:06:04;10.20;;;3.20;;
4424;SDS011;2225;53.568;13.266;2023-04-25T02:08:33;14.80;;;3.73;;
4424;SDS011;2225;53.568;13.266;2023-04-25T02:11:00;9.90;;;3.70;;
4424;SDS011;2225;53.568;13.266;2023-04-25T02:13:36;8.53;;;3.20;;
4424;SDS011;2225;53.568;13.266;2023-04-25T02:16:15;10.63;;;3.93;;
4424;SDS011;2225;53.568;13.266;2023-04-25T02:18:42;7.80;;;3.33;;
4424;SDS011;2225;53.568;13.266;2023-04-25T02:21:11;9.17;;;3.30;;
4424;SDS011;2225;53.568;13.266;2023-04-25T02:23:37;12.73;;;3.50;;
4424;SDS011;2225;53.568;13.266;2023-04-25T02:26:04;12.67;;;3.80;;
4424;SDS011;2225;53.568;13.266;2023-04-25T02:28:32;8.13;;;3.43;;
4424;SDS011;2225;53.568;13.266;2023-04-25T02:31:03;11.73;;;3.80;;
4424;SDS011;2225;53.568;13.266;2023-04-25T02:33:30;9.07;;;3.50;;
4424;SDS011;2225;53.568;13.266;2023-04-25T02:35:57;15.00;;;4.27;;
4424;SDS011;2225;53.568;13.266;2023-04-25T02:38:24;8.70;;;3.43;;
4424;SDS011;2225;53.568;13.266;2023-04-25T02:40:51;11.73;;;3.67;;
4424;SDS011;2225;53.568;13.266;2023-04-25T02:43:18;9.20;;;3.60;;
4424;SDS011;2225;53.568;13.266;2023-04-25T02:45:45;11.40;;;3.97;;
4424;SDS011;2225;53.568;13.266;2023-04-25T02:48:12;14.63;;;4.73;;
4424;SDS011;2225;53.568;13.266;2023-04-25T02:50:39;16.83;;;5.07;;
4424;SDS011;2225;53.568;13.266;2023-04-25T02:53:06;10.20;;;4.20;;
4424;SDS011;2225;53.568;13.266;2023-04-25T02:55:39;12.87;;;4.43;;
4424;SDS011;2225;53.568;13.266;2023-04-25T02:58:06;12.13;;;4.60;;
4424;SDS011;2225;53.568;13.266;2023-04-25T03:00:43;16.57;;;4.53;;
4424;SDS011;2225;53.568;13.266;2023-04-25T03:03:10;9.90;;;4.10;;
4424;SDS011;2225;53.568;13.266;2023-04-25T03:05:37;14.40;;;4.37;;
4424;SDS011;2225;53.568;13.266;2023-04-25T03:08:05;12.90;;;3.70;;
4424;SDS011;2225;53.568;13.266;2023-04-25T03:10:33;11.67;;;4.17;;
4424;SDS011;2225;53.568;13.266;2023-04-25T03:13:04;10.40;;;3.60;;
4424;SDS011;2225;53.568;13.266;2023-04-25T03:15:31;15.67;;;4.73;;
4424;SDS011;2225;53.568;13.266;2023-04-25T03:17:58;12.23;;;4.10;;
4424;SDS011;2225;53.568;13.266;2023-04-25T03:20:25;10.47;;;4.53;;
4424;SDS011;2225;53.568;13.266;2023-04-25T03:22:52;9.10;;;3.80;;
4424;SDS011;2225;53.568;13.266;2023-04-25T03:25:19;16.13;;;5.37;;
4424;SDS011;2225;53.568;13.266;2023-04-25T03:27:46;12.67;;;5.43;;
4424;SDS011;2225;53.568;13.266;2023-04-25T03:30:13;11.43;;;4.90;;
4424;SDS011;2225;53.568;13.266;2023-04-25T03:32:42;11.30;;;4.57;;
4424;SDS011;2225;53.568;13.266;2023-04-25T03:35:13;11.43;;;4.27;;
4424;SDS011;2225;53.568;13.266;2023-04-25T03:37:40;11.67;;;4.10;;
4424;SDS011;2225;53.568;13.266;2023-04-25T03:40:15;12.40;;;3.93;;
4424;SDS011;2225;53.568;13.266;2023-04-25T03:43:04;12.60;;;4.80;;
4424;SDS011;2225;53.568;13.266;2023-04-25T03:45:32;12.37;;;6.00;;
4424;SDS011;2225;53.568;13.266;2023-04-25T03:47:59;8.03;;;4.67;;
4424;SDS011;2225;53.568;13.266;2023-04-25T03:50:28;11.20;;;3.80;;
4424;SDS011;2225;53.568;13.266;2023-04-25T03:52:55;10.07;;;3.80;;
4424;SDS011;2225;53.568;13.266;2023-04-25T03:55:25;10.03;;;3.50;;
4424;SDS011;2225;53.568;13.266;2023-04-25T03:57:52;12.20;;;3.77;;
4424;SDS011;2225;53.568;13.266;2023-04-25T04:00:19;8.23;;;4.00;;
4424;SDS011;2225;53.568;13.266;2023-04-25T04:02:50;7.27;;;3.60;;
4424;SDS011;2225;53.568;13.266;2023-04-25T04:05:17;12.90;;;4.23;;
4424;SDS011;2225;53.568;13.266;2023-04-25T04:07:50;9.10;;;4.10;;
4424;SDS011;2225;53.568;13.266;2023-04-25T04:10:17;9.37;;;4.40;;
4424;SDS011;2225;53.568;13.266;2023-04-25T04:12:44;10.83;;;4.47;;
4424;SDS011;2225;53.568;13.266;2023-04-25T04:15:11;13.00;;;4.33;;
4424;SDS011;2225;53.568;13.266;2023-04-25T04:17:39;15.87;;;5.00;;
4424;SDS011;2225;53.568;13.266;2023-04-25T04:20:08;14.23;;;4.67;;
4424;SDS011;2225;53.568;13.266;2023-04-25T04:22:38;9.37;;;4.07;;
4424;SDS011;2225;53.568;13.266;2023-04-25T04:25:08;13.37;;;4.10;;
4424;SDS011;2225;53.568;13.266;2023-04-25T04:27:58;16.23;;;4.30;;
4424;SDS011;2225;53.568;13.266;2023-04-25T04:30:43;8.00;;;4.03;;
4424;SDS011;2225;53.568;13.266;2023-04-25T04:33:13;9.50;;;4.10;;
4424;SDS011;2225;53.568;13.266;2023-04-25T04:35:48;14.87;;;4.33;;
4424;SDS011;2225;53.568;13.266;2023-04-25T04:38:16;11.60;;;4.43;;
4424;SDS011;2225;53.568;13.266;2023-04-25T04:40:45;15.53;;;5.10;;
4424;SDS011;2225;53.568;13.266;2023-04-25T04:43:18;12.50;;;4.93;;
4424;SDS011;2225;53.568;13.266;2023-04-25T04:46:00;9.03;;;4.47;;
4424;SDS011;2225;53.568;13.266;2023-04-25T04:48:57;16.07;;;5.57;;
4424;SDS011;2225;53.568;13.266;2023-04-25T04:51:45;11.47;;;4.20;;
4424;SDS011;2225;53.568;13.266;2023-04-25T04:54:31;12.03;;;4.67;;
4424;SDS011;2225;53.568;13.266;2023-04-25T04:57:12;12.83;;;5.00;;
4424;SDS011;2225;53.568;13.266;2023-04-25T04:59:58;10.10;;;4.90;;
4424;SDS011;2225;53.568;13.266;2023-04-25T05:02:51;13.37;;;5.23;;
4424;SDS011;2225;53.568;13.266;2023-04-25T05:05:37;14.90;;;5.80;;
4424;SDS011;2225;53.568;13.266;2023-04-25T05:08:16;11.43;;;4.67;;
4424;SDS011;2225;53.568;13.266;2023-04-25T05:11:02;14.10;;;4.40;;
4424;SDS011;2225;53.568;13.266;2023-04-25T05:13:36;17.43;;;5.40;;
4424;SDS011;2225;53.568;13.266;2023-04-25T05:16:14;22.17;;;5.70;;
4424;SDS011;2225;53.568;13.266;2023-04-25T05:19:07;11.90;;;4.27;;
4424;SDS011;2225;53.568;13.266;2023-04-25T05:21:45;14.20;;;4.80;;
4424;SDS011;2225;53.568;13.266;2023-04-25T05:24:26;9.27;;;4.40;;
4424;SDS011;2225;53.568;13.266;2023-04-25T05:27:10;14.20;;;5.20;;
4424;SDS011;2225;53.568;13.266;2023-04-25T05:30:03;11.27;;;4.40;;
4424;SDS011;2225;53.568;13.266;2023-04-25T05:32:39;11.73;;;4.30;;
4424;SDS011;2225;53.568;13.266;2023-04-25T05:35:06;11.57;;;4.10;;
4424;SDS011;2225;53.568;13.266;2023-04-25T05:37:43;13.13;;;4.67;;
4424;SDS011;2225;53.568;13.266;2023-04-25T05:40:12;24.23;;;5.07;;
4424;SDS011;2225;53.568;13.266;2023-04-25T05:42:52;21.17;;;5.50;;
4424;SDS011;2225;53.568;13.266;2023-04-25T05:45:30;19.30;;;5.40;;
4424;SDS011;2225;53.568;13.266;2023-04-25T05:48:02;16.73;;;4.13;;
4424;SDS011;2225;53.568;13.266;2023-04-25T05:50:48;21.00;;;4.43;;
4424;SDS011;2225;53.568;13.266;2023-04-25T05:53:24;20.30;;;5.27;;
4424;SDS011;2225;53.568;13.266;2023-04-25T05:55:57;15.63;;;4.90;;
4424;SDS011;2225;53.568;13.266;2023-04-25T05:58:26;16.70;;;5.90;;
4424;SDS011;2225;53.568;13.266;2023-04-25T06:00:53;15.47;;;4.60;;
4424;SDS011;2225;53.568;13.266;2023-04-25T06:03:20;24.47;;;5.80;;
4424;SDS011;2225;53.568;13.266;2023-04-25T06:05:49;20.20;;;4.67;;
4424;SDS011;2225;53.568;13.266;2023-04-25T06:08:16;25.03;;;5.27;;
4424;SDS011;2225;53.568;13.266;2023-04-25T06:10:43;26.20;;;4.97;;
4424;SDS011;2225;53.568;13.266;2023-04-25T06:13:10;22.33;;;4.83;;
4424;SDS011;2225;53.568;13.266;2023-04-25T06:15:37;22.80;;;5.40;;
4424;SDS011;2225;53.568;13.266;2023-04-25T06:18:04;29.23;;;5.47;;
4424;SDS011;2225;53.568;13.266;2023-04-25T06:20:32;24.97;;;5.10;;
4424;SDS011;2225;53.568;13.266;2023-04-25T06:23:00;21.20;;;5.67;;
4424;SDS011;2225;53.568;13.266;2023-04-25T06:25:37;23.50;;;5.13;;
4424;SDS011;2225;53.568;13.266;2023-04-25T06:28:04;25.33;;;5.27;;
4424;SDS011;2225;53.568;13.266;2023-04-25T06:30:31;18.10;;;4.27;;
4424;SDS011;2225;53.568;13.266;2023-04-25T06:33:04;23.03;;;4.80;;
4424;SDS011;2225;53.568;13.266;2023-04-25T06:35:31;21.63;;;5.00;;
4424;SDS011;2225;53.568;13.266;2023-04-25T06:37:59;31.83;;;5.10;;
4424;SDS011;2225;53.568;13.266;2023-04-25T06:40:26;20.23;;;4.37;;
4424;SDS011;2225;53.568;13.266;2023-04-25T06:42:53;27.53;;;6.20;;
4424;SDS011;2225;53.568;13.266;2023-04-25T06:45:45;21.70;;;5.30;;
4424;SDS011;2225;53.568;13.266;2023-04-25T06:48:14;25.33;;;4.20;;
4424;SDS011;2225;53.568;13.266;2023-04-25T06:50:41;23.87;;;4.70;;
4424;SDS011;2225;53.568;13.266;2023-04-25T06:53:08;29.87;;;5.87;;
4424;SDS011;2225;53.568;13.266;2023-04-25T06:55:38;24.57;;;5.37;;
4424;SDS011;2225;53.568;13.266;2023-04-25T06:58:11;22.53;;;4.90;;
4424;SDS011;2225;53.568;13.266;2023-04-25T07:00:53;23.87;;;4.87;;
4424;SDS011;2225;53.568;13.266;2023-04-25T07:03:23;21.03;;;5.63;;
4424;SDS011;2225;53.568;13.266;2023-04-25T07:05:54;26.33;;;5.37;;
4424;SDS011;2225;53.568;13.266;2023-04-25T07:08:23;31.73;;;5.20;;
4424;SDS011;2225;53.568;13.266;2023-04-25T07:10:50;19.87;;;5.33;;
4424;SDS011;2225;53.568;13.266;2023-04-25T07:13:16;16.10;;;3.67;;
4424;SDS011;2225;53.568;13.266;2023-04-25T07:15:44;27.23;;;6.20;;
4424;SDS011;2225;53.568;13.266;2023-04-25T07:18:11;16.80;;;4.30;;
4424;SDS011;2225;53.568;13.266;2023-04-25T07:20:38;19.87;;;4.27;;
4424;SDS011;2225;53.568;13.266;2023-04-25T07:23:05;15.37;;;3.80;;
4424;SDS011;2225;53.568;13.266;2023-04-25T07:25:32;21.20;;;4.50;;
4424;SDS011;2225;53.568;13.266;2023-04-25T07:28:00;19.37;;;5.23;;
4424;SDS011;2225;53.568;13.266;2023-04-25T07:30:27;20.60;;;4.80;;
4424;SDS011;2225;53.568;13.266;2023-04-25T07:32:54;18.40;;;5.47;;
4424;SDS011;2225;53.568;13.266;2023-04-25T07:35:22;21.60;;;4.73;;
4424;SDS011;2225;53.568;13.266;2023-04-25T07:37:49;21.97;;;4.80;;
4424;SDS011;2225;53.568;13.266;2023-04-25T07:40:18;23.17;;;4.43;;
4424;SDS011;2225;53.568;13.266;2023-04-25T07:42:49;17.67;;;4.13;;
4424;SDS011;2225;53.568;13.266;2023-04-25T07:45:22;17.03;;;5.33;;
4424;SDS011;2225;53.568;13.266;2023-04-25T07:47:50;20.80;;;4.90;;
4424;SDS011;2225;53.568;13.266;2023-04-25T07:50:17;16.33;;;4.07;;
4424;SDS011;2225;53.568;13.266;2023-04-25T07:52:45;21.97;;;4.70;;
4424;SDS011;2225;53.568;13.266;2023-04-25T07:55:20;22.47;;;5.03;;
4424;SDS011;2225;53.568;13.266;2023-04-25T07:57:56;17.37;;;4.50;;
4424;SDS011;2225;53.568;13.266;2023-04-25T08:00:23;20.13;;;4.53;;
4424;SDS011;2225;53.568;13.266;2023-04-25T08:03:01;18.53;;;4.40;;
4424;SDS011;2225;53.568;13.266;2023-04-25T08:05:29;17.33;;;4.80;;
4424;SDS011;2225;53.568;13.266;2023-04-25T08:08:01;27.50;;;4.40;;
4424;SDS011;2225;53.568;13.266;2023-04-25T08:10:29;17.93;;;4.13;;
4424;SDS011;2225;53.568;13.266;2023-04-25T08:12:56;20.73;;;4.90;;
4424;SDS011;2225;53.568;13.266;2023-04-25T08:15:23;28.53;;;4.70;;
4424;SDS011;2225;53.568;13.266;2023-04-25T08:17:50;24.67;;;4.30;;
4424;SDS011;2225;53.568;13.266;2023-04-25T08:20:17;31.00;;;4.87;;
4424;SDS011;2225;53.568;13.266;2023-04-25T08:22:45;20.13;;;4.63;;
4424;SDS011;2225;53.568;13.266;2023-04-25T08:25:24;21.13;;;4.87;;
4424;SDS011;2225;53.568;13.266;2023-04-25T08:27:52;22.20;;;5.00;;
4424;SDS011;2225;53.568;13.266;2023-04-25T08:30:21;27.17;;;4.80;;
4424;SDS011;2225;53.568;13.266;2023-04-25T08:32:49;15.83;;;4.70;;
4424;SDS011;2225;53.568;13.266;2023-04-25T08:35:30;17.83;;;4.80;;
4424;SDS011;2225;53.568;13.266;2023-04-25T08:37:57;26.50;;;5.30;;
4424;SDS011;2225;53.568;13.266;2023-04-25T08:40:24;18.13;;;4.30;;
4424;SDS011;2225;53.568;13.266;2023-04-25T08:43:00;22.40;;;5.13;;
4424;SDS011;2225;53.568;13.266;2023-04-25T08:45:31;25.10;;;5.87;;
4424;SDS011;2225;53.568;13.266;2023-04-25T08:47:58;24.53;;;5.07;;
4424;SDS011;2225;53.568;13.266;2023-04-25T08:50:27;19.37;;;5.27;;
4424;SDS011;2225;53.568;13.266;2023-04-25T08:52:56;18.73;;;4.03;;
4424;SDS011;2225;53.568;13.266;2023-04-25T08:55:29;22.80;;;3.87;;
4424;SDS011;2225;53.568;13.266;2023-04-25T08:57:58;20.77;;;4.43;;
4424;SDS011;2225;53.568;13.266;2023-04-25T09:00:27;25.63;;;3.90;;
4424;SDS011;2225;53.568;13.266;2023-04-25T09:02:55;19.20;;;4.10;;
4424;SDS011;2225;53.568;13.266;2023-04-25T09:05:28;14.03;;;4.20;;
4424;SDS011;2225;53.568;13.266;2023-04-25T09:07:55;23.17;;;3.83;;
4424;SDS011;2225;53.568;13.266;2023-04-25T09:10:22;23.30;;;3.53;;
4424;SDS011;2225;53.568;13.266;2023-04-25T09:13:13;14.50;;;3.90;;
4424;SDS011;2225;53.568;13.266;2023-04-25T09:15:59;12.60;;;3.60;;
4424;SDS011;2225;53.568;13.266;2023-04-25T09:18:38;18.53;;;4.07;;
4424;SDS011;2225;53.568;13.266;2023-04-25T09:21:06;15.80;;;4.20;;
4424;SDS011;2225;53.568;13.266;2023-04-25T09:23:44;18.87;;;4.20;;
4424;SDS011;2225;53.568;13.266;2023-04-25T09:26:14;27.63;;;4.93;;
4424;SDS011;2225;53.568;13.266;2023-04-25T09:28:43;14.00;;;3.57;;
4424;SDS011;2225;53.568;13.266;2023-04-25T09:31:21;15.33;;;3.60;;
4424;SDS011;2225;53.568;13.266;2023-04-25T09:33:58;21.93;;;3.80;;
4424;SDS011;2225;53.568;13.266;2023-04-25T09:36:38;12.33;;;3.63;;
4424;SDS011;2225;53.568;13.266;2023-04-25T09:39:28;15.03;;;4.17;;
4424;SDS011;2225;53.568;13.266;2023-04-25T09:42:03;14.97;;;3.60;;
4424;SDS011;2225;53.568;13.266;2023-04-25T09:44:31;16.10;;;3.70;;
4424;SDS011;2225;53.568;13.266;2023-04-25T09:46:58;11.10;;;3.50;;
4424;SDS011;2225;53.568;13.266;2023-04-25T09:49:28;15.87;;;4.03;;
4424;SDS011;2225;53.568;13.266;2023-04-25T09:52:14;18.23;;;4.07;;
4424;SDS011;2225;53.568;13.266;2023-04-25T09:54:54;12.80;;;3.00;;
4424;SDS011;2225;53.568;13.266;2023-04-25T09:57:28;14.27;;;4.27;;
4424;SDS011;2225;53.568;13.266;2023-04-25T09:59:57;41.10;;;6.90;;
4424;SDS011;2225;53.568;13.266;2023-04-25T10:02:39;19.57;;;5.30;;
4424;SDS011;2225;53.568;13.266;2023-04-25T10:05:15;20.70;;;4.30;;
4424;SDS011;2225;53.568;13.266;2023-04-25T10:07:43;20.30;;;4.97;;
4424;SDS011;2225;53.568;13.266;2023-04-25T10:10:15;18.43;;;3.67;;
4424;SDS011;2225;53.568;13.266;2023-04-25T10:12:42;14.13;;;4.20;;
4424;SDS011;2225;53.568;13.266;2023-04-25T10:15:10;18.77;;;4.67;;
4424;SDS011;2225;53.568;13.266;2023-04-25T10:17:39;24.83;;;3.87;;
4424;SDS011;2225;53.568;13.266;2023-04-25T10:20:07;14.87;;;4.37;;
4424;SDS011;2225;53.568;13.266;2023-04-25T10:22:38;11.37;;;3.07;;
4424;SDS011;2225;53.568;13.266;2023-04-25T10:25:08;16.80;;;4.50;;
4424;SDS011;2225;53.568;13.266;2023-04-25T10:27:38;20.33;;;4.47;;
4424;SDS011;2225;53.568;13.266;2023-04-25T10:30:09;13.83;;;3.40;;
4424;SDS011;2225;53.568;13.266;2023-04-25T10:32:42;18.13;;;4.40;;
4424;SDS011;2225;53.568;13.266;2023-04-25T10:35:16;19.00;;;4.03;;
4424;SDS011;2225;53.568;13.266;2023-04-25T10:38:00;14.63;;;2.97;;
4424;SDS011;2225;53.568;13.266;2023-04-25T10:41:04;17.10;;;3.77;;
4424;SDS011;2225;53.568;13.266;2023-04-25T10:43:39;19.33;;;3.90;;
4424;SDS011;2225;53.568;13.266;2023-04-25T10:46:24;16.70;;;4.23;;
4424;SDS011;2225;53.568;13.266;2023-04-25T10:48:56;19.30;;;4.60;;
4424;SDS011;2225;53.568;13.266;2023-04-25T10:51:26;23.37;;;5.23;;
4424;SDS011;2225;53.568;13.266;2023-04-25T10:54:08;14.70;;;3.60;;
4424;SDS011;2225;53.568;13.266;2023-04-25T10:59:05;19.20;;;4.60;;
4424;SDS011;2225;53.568;13.266;2023-04-25T11:01:41;17.70;;;3.60;;
4424;SDS011;2225;53.568;13.266;2023-04-25T11:04:19;16.83;;;4.40;;
4424;SDS011;2225;53.568;13.266;2023-04-25T11:06:58;19.73;;;3.73;;
4424;SDS011;2225;53.568;13.266;2023-04-25T11:09:38;19.37;;;4.10;;
4424;SDS011;2225;53.568;13.266;2023-04-25T11:12:09;16.10;;;3.40;;
4424;SDS011;2225;53.568;13.266;2023-04-25T11:14:38;18.20;;;3.63;;
4424;SDS011;2225;53.568;13.266;2023-04-25T11:17:10;20.10;;;3.90;;
4424;SDS011;2225;53.568;13.266;2023-04-25T11:19:37;18.70;;;3.93;;
4424;SDS011;2225;53.568;13.266;2023-04-25T11:22:04;9.80;;;2.67;;
4424;SDS011;2225;53.568;13.266;2023-04-25T11:24:32;18.47;;;3.80;;
4424;SDS011;2225;53.568;13.266;2023-04-25T11:27:02;20.07;;;3.83;;
4424;SDS011;2225;53.568;13.266;2023-04-25T11:29:30;19.63;;;3.47;;
4424;SDS011;2225;53.568;13.266;2023-04-25T11:32:00;20.93;;;4.20;;
4424;SDS011;2225;53.568;13.266;2023-04-25T11:34:28;16.70;;;3.60;;
4424;SDS011;2225;53.568;13.266;2023-04-25T11:37:00;11.40;;;3.00;;
4424;SDS011;2225;53.568;13.266;2023-04-25T11:39:28;14.50;;;3.80;;
4424;SDS011;2225;53.568;13.266;2023-04-25T11:41:55;15.13;;;3.60;;
4424;SDS011;2225;53.568;13.266;2023-04-25T11:44:22;14.27;;;3.30;;
4424;SDS011;2225;53.568;13.266;2023-04-25T11:46:49;18.13;;;3.60;;
4424;SDS011;2225;53.568;13.266;2023-04-25T11:49:16;17.10;;;3.97;;
4424;SDS011;2225;53.568;13.266;2023-04-25T11:51:45;20.10;;;4.87;;
4424;SDS011;2225;53.568;13.266;2023-04-25T11:54:13;16.70;;;4.43;;
4424;SDS011;2225;53.568;13.266;2023-04-25T11:56:45;21.80;;;4.10;;
4424;SDS011;2225;53.568;13.266;2023-04-25T11:59:12;10.47;;;3.13;;
4424;SDS011;2225;53.568;13.266;2023-04-25T12:01:47;13.17;;;3.10;;
4424;SDS011;2225;53.568;13.266;2023-04-25T12:06:53;13.30;;;3.40;;
4424;SDS011;2225;53.568;13.266;2023-04-25T12:09:28;11.07;;;3.37;;
4424;SDS011;2225;53.568;13.266;2023-04-25T12:11:58;17.40;;;3.00;;
4424;SDS011;2225;53.568;13.266;2023-04-25T12:14:30;16.03;;;4.03;;
4424;SDS011;2225;53.568;13.266;2023-04-25T12:17:02;20.97;;;4.33;;
4424;SDS011;2225;53.568;13.266;2023-04-25T12:19:32;14.50;;;3.27;;
4424;SDS011;2225;53.568;13.266;2023-04-25T12:22:10;16.07;;;3.23;;
4424;SDS011;2225;53.568;13.266;2023-04-25T12:24:49;19.63;;;3.97;;
4424;SDS011;2225;53.568;13.266;2023-04-25T12:27:17;12.97;;;3.70;;
4424;SDS011;2225;53.568;13.266;2023-04-25T12:29:51;13.60;;;3.50;;
4424;SDS011;2225;53.568;13.266;2023-04-25T12:32:22;11.97;;;3.27;;
4424;SDS011;2225;53.568;13.266;2023-04-25T12:34:49;13.50;;;3.50;;
4424;SDS011;2225;53.568;13.266;2023-04-25T12:37:16;13.63;;;2.93;;
4424;SDS011;2225;53.568;13.266;2023-04-25T12:39:43;10.70;;;3.07;;
4424;SDS011;2225;53.568;13.266;2023-04-25T12:42:10;16.00;;;3.47;;
4424;SDS011;2225;53.568;13.266;2023-04-25T12:44:39;15.70;;;3.40;;
4424;SDS011;2225;53.568;13.266;2023-04-25T12:47:06;17.33;;;3.83;;
4424;SDS011;2225;53.568;13.266;2023-04-25T12:49:33;14.80;;;3.43;;
4424;SDS011;2225;53.568;13.266;2023-04-25T12:52:00;14.83;;;3.60;;
4424;SDS011;2225;53.568;13.266;2023-04-25T12:54:27;18.43;;;3.10;;
4424;SDS011;2225;53.568;13.266;2023-04-25T12:56:54;13.60;;;3.37;;
4424;SDS011;2225;53.568;13.266;2023-04-25T12:59:21;17.97;;;4.00;;
4424;SDS011;2225;53.568;13.266;2023-04-25T13:01:48;15.80;;;2.70;;
4424;SDS011;2225;53.568;13.266;2023-04-25T13:04:15;12.20;;;3.27;;
4424;SDS011;2225;53.568;13.266;2023-04-25T13:06:42;15.50;;;3.07;;
4424;SDS011;2225;53.568;13.266;2023-04-25T13:09:09;14.07;;;3.03;;
4424;SDS011;2225;53.568;13.266;2023-04-25T13:11:38;17.33;;;3.80;;
4424;SDS011;2225;53.568;13.266;2023-04-25T13:14:06;13.77;;;3.50;;
4424;SDS011;2225;53.568;13.266;2023-04-25T13:16:33;12.60;;;2.77;;
4424;SDS011;2225;53.568;13.266;2023-04-25T13:19:00;11.03;;;2.80;;
4424;SDS011;2225;53.568;13.266;2023-04-25T13:21:29;17.43;;;2.90;;
4424;SDS011;2225;53.568;13.266;2023-04-25T13:23:59;10.70;;;3.13;;
4424;SDS011;2225;53.568;13.266;2023-04-25T13:26:26;16.13;;;3.37;;
4424;SDS011;2225;53.568;13.266;2023-04-25T13:28:53;19.63;;;3.00;;
4424;SDS011;2225;53.568;13.266;2023-04-25T13:31:19;11.60;;;2.60;;
4424;SDS011;2225;53.568;13.266;2023-04-25T13:33:47;11.30;;;2.87;;
4424;SDS011;2225;53.568;13.266;2023-04-25T13:36:14;13.37;;;3.30;;
4424;SDS011;2225;53.568;13.266;2023-04-25T13:38:41;13.87;;;3.33;;
4424;SDS011;2225;53.568;13.266;2023-04-25T13:41:10;13.60;;;3.50;;
4424;SDS011;2225;53.568;13.266;2023-04-25T13:43:41;15.90;;;3.10;;
4424;SDS011;2225;53.568;13.266;2023-04-25T13:46:08;14.37;;;3.40;;
4424;SDS011;2225;53.568;13.266;2023-04-25T13:48:55;20.37;;;3.63;;
4424;SDS011;2225;53.568;13.266;2023-04-25T13:51:35;20.13;;;3.50;;
4424;SDS011;2225;53.568;13.266;2023-04-25T13:54:02;18.03;;;3.67;;
4424;SDS011;2225;53.568;13.266;2023-04-25T13:56:29;13.60;;;3.87;;
4424;SDS011;2225;53.568;13.266;2023-04-25T13:58:56;15.13;;;3.30;;
4424;SDS011;2225;53.568;13.266;2023-04-25T14:01:23;13.83;;;3.50;;
4424;SDS011;2225;53.568;13.266;2023-04-25T14:03:50;13.63;;;3.57;;
4424;SDS011;2225;53.568;13.266;2023-04-25T14:06:17;10.43;;;2.60;;
4424;SDS011;2225;53.568;13.266;2023-04-25T14:08:49;9.53;;;3.10;;
4424;SDS011;2225;53.568;13.266;2023-04-25T14:11:16;12.60;;;3.17;;
4424;SDS011;2225;53.568;13.266;2023-04-25T14:13:44;15.53;;;4.10;;
4424;SDS011;2225;53.568;13.266;2023-04-25T14:16:12;12.20;;;2.93;;
4424;SDS011;2225;53.568;13.266;2023-04-25T14:18:39;15.10;;;3.60;;
4424;SDS011;2225;53.568;13.266;2023-04-25T14:21:06;14.87;;;3.63;;
4424;SDS011;2225;53.568;13.266;2023-04-25T14:23:33;16.07;;;4.23;;
4424;SDS011;2225;53.568;13.266;2023-04-25T14:25:59;18.23;;;4.03;;
4424;SDS011;2225;53.568;13.266;2023-04-25T14:28:26;11.53;;;2.70;;
4424;SDS011;2225;53.568;13.266;2023-04-25T14:30:53;15.20;;;2.80;;
4424;SDS011;2225;53.568;13.266;2023-04-25T14:33:20;15.47;;;3.13;;
4424;SDS011;2225;53.568;13.266;2023-04-25T14:35:48;8.70;;;2.77;;
4424;SDS011;2225;53.568;13.266;2023-04-25T14:38:15;10.37;;;2.03;;
4424;SDS011;2225;53.568;13.266;2023-04-25T14:40:42;10.93;;;2.43;;
4424;SDS011;2225;53.568;13.266;2023-04-25T14:43:09;9.60;;;2.63;;
4424;SDS011;2225;53.568;13.266;2023-04-25T14:45:35;15.93;;;3.23;;
4424;SDS011;2225;53.568;13.266;2023-04-25T14:48:02;11.03;;;2.80;;
4424;SDS011;2225;53.568;13.266;2023-04-25T14:50:30;13.23;;;3.20;;
4424;SDS011;2225;53.568;13.266;2023-04-25T14:52:57;10.40;;;2.33;;
4424;SDS011;2225;53.568;13.266;2023-04-25T14:55:26;10.07;;;2.73;;
4424;SDS011;2225;53.568;13.266;2023-04-25T14:57:54;9.67;;;2.93;;
4424;SDS011;2225;53.568;13.266;2023-04-25T15:00:22;11.90;;;2.90;;
4424;SDS011;2225;53.568;13.266;2023-04-25T15:02:51;9.30;;;2.53;;
4424;SDS011;2225;53.568;13.266;2023-04-25T15:05:18;13.47;;;2.70;;
4424;SDS011;2225;53.568;13.266;2023-04-25T15:07:46;14.13;;;2.23;;
4424;SDS011;2225;53.568;13.266;2023-04-25T15:10:13;10.80;;;2.87;;
4424;SDS011;2225;53.568;13.266;2023-04-25T15:12:42;8.90;;;2.17;;
4424;SDS011;2225;53.568;13.266;2023-04-25T15:15:12;13.77;;;2.43;;
4424;SDS011;2225;53.568;13.266;2023-04-25T15:17:51;16.57;;;2.60;;